createdAt,value
2023-01-23T00:01:27.043Z,15.63
2023-01-23T00:03:55.947Z,16.15
2023-01-23T00:06:24.454Z,15.00
2023-01-23T00:08:52.504Z,14.95
2023-01-23T00:11:22.812Z,14.63
2023-01-23T00:13:50.778Z,13.88
2023-01-23T00:16:21.431Z,14.02
2023-01-23T00:18:52.273Z,14.70
2023-01-23T00:21:21.781Z,14.20
2023-01-23T00:23:54.573Z,15.00
2023-01-23T00:26:24.407Z,15.00
2023-01-23T00:28:52.995Z,14.82
2023-01-23T00:31:24.645Z,15.00
2023-01-23T00:33:57.560Z,15.60
2023-01-23T00:36:28.564Z,14.40
2023-01-23T00:38:56.594Z,14.88
2023-01-23T00:41:24.744Z,14.70
2023-01-23T00:43:52.966Z,14.65
2023-01-23T00:46:21.564Z,14.02
2023-01-23T00:48:50.242Z,15.90
2023-01-23T00:51:19.856Z,16.77
2023-01-23T00:53:47.859Z,16.10
2023-01-23T00:56:15.876Z,15.48
2023-01-23T00:58:45.241Z,13.85
2023-01-23T01:01:13.739Z,15.25
2023-01-23T01:03:41.920Z,14.82
2023-01-23T01:06:09.992Z,14.40
2023-01-23T01:08:39.573Z,13.88
2023-01-23T01:11:08.227Z,15.75
2023-01-23T01:13:37.080Z,15.65
2023-01-23T01:16:05.657Z,16.30
2023-01-23T01:18:33.965Z,16.52
2023-01-23T01:21:02.127Z,15.70
2023-01-23T01:23:30.091Z,17.33
2023-01-23T01:26:02.003Z,17.15
2023-01-23T01:28:31.214Z,18.38
2023-01-23T01:30:59.359Z,19.20
2023-01-23T01:33:28.281Z,19.38
2023-01-23T01:35:56.792Z,18.70
2023-01-23T01:38:25.581Z,18.88
2023-01-23T01:40:53.566Z,17.95
2023-01-23T01:43:27.006Z,19.70
2023-01-23T01:46:14.753Z,17.55
2023-01-23T01:48:48.623Z,17.60
2023-01-23T01:51:23.425Z,19.80
2023-01-23T01:53:55.328Z,18.23
2023-01-23T01:56:23.589Z,16.98
2023-01-23T01:58:54.054Z,18.27
2023-01-23T02:01:22.538Z,18.65
2023-01-23T02:03:52.779Z,16.73
2023-01-23T02:06:21.632Z,16.17
2023-01-23T02:08:58.099Z,18.10
2023-01-23T02:11:26.314Z,17.38
2023-01-23T02:13:58.564Z,17.25
2023-01-23T02:16:29.892Z,16.77
2023-01-23T02:19:01.851Z,18.77
2023-01-23T02:21:30.076Z,18.40
2023-01-23T02:24:15.372Z,15.57
2023-01-23T02:26:46.567Z,14.20
2023-01-23T02:29:15.692Z,16.48
2023-01-23T02:31:45.888Z,14.93
2023-01-23T02:34:15.603Z,15.82
2023-01-23T02:36:46.440Z,17.38
2023-01-23T02:39:17.747Z,14.30
2023-01-23T02:41:48.966Z,14.98
2023-01-23T02:44:21.162Z,14.70
2023-01-23T02:46:49.152Z,16.50
2023-01-23T02:49:17.223Z,15.88
2023-01-23T02:51:45.317Z,15.85
2023-01-23T02:54:13.435Z,14.77
2023-01-23T02:56:42.118Z,15.05
2023-01-23T02:59:29.465Z,14.77
2023-01-23T03:01:57.581Z,13.60
2023-01-23T03:04:25.560Z,15.85
2023-01-23T03:06:53.590Z,16.13
2023-01-23T03:09:22.656Z,16.60
2023-01-23T03:11:50.671Z,17.73
2023-01-23T03:14:22.376Z,16.90
2023-01-23T03:16:52.623Z,13.38
2023-01-23T03:19:23.214Z,16.63
2023-01-23T03:21:51.813Z,15.95
2023-01-23T03:24:21.222Z,16.17
2023-01-23T03:26:51.103Z,16.58
2023-01-23T03:29:40.758Z,18.05
2023-01-23T03:32:09.519Z,16.13
2023-01-23T03:34:37.742Z,16.80
2023-01-23T03:37:07.869Z,15.68
2023-01-23T03:39:53.579Z,15.68
2023-01-23T03:42:21.577Z,16.60
2023-01-23T03:44:52.372Z,19.00
2023-01-23T03:47:20.823Z,16.90
2023-01-23T03:49:48.701Z,17.73
2023-01-23T03:52:16.636Z,17.02
2023-01-23T03:54:44.677Z,18.13
2023-01-23T03:57:12.869Z,16.63
2023-01-23T03:59:40.948Z,17.20
2023-01-23T04:02:10.330Z,17.10
2023-01-23T04:04:38.301Z,16.40
2023-01-23T04:07:07.289Z,18.95
2023-01-23T04:09:35.406Z,17.50
2023-01-23T04:12:03.404Z,17.92
2023-01-23T04:14:37.232Z,17.42
2023-01-23T04:17:05.394Z,17.33
2023-01-23T04:19:35.415Z,16.75
2023-01-23T04:22:03.530Z,16.40
2023-01-23T04:24:31.479Z,17.80
2023-01-23T04:26:59.387Z,17.63
2023-01-23T04:29:27.450Z,17.95
2023-01-23T04:31:55.420Z,19.38
2023-01-23T04:34:23.488Z,18.60
2023-01-23T04:36:53.012Z,23.48
2023-01-23T04:39:20.915Z,28.45
2023-01-23T04:41:48.950Z,33.08
2023-01-23T04:44:22.787Z,19.98
2023-01-23T04:46:52.933Z,30.00
2023-01-23T04:49:21.766Z,24.00
2023-01-23T04:51:50.559Z,27.40
2023-01-23T04:54:21.193Z,22.33
2023-01-23T04:56:49.978Z,27.17
2023-01-23T04:59:18.245Z,23.25
2023-01-23T05:01:46.707Z,20.80
2023-01-23T05:04:14.959Z,19.15
2023-01-23T05:06:42.922Z,17.65
2023-01-23T05:09:11.407Z,18.48
2023-01-23T05:11:40.750Z,29.23
2023-01-23T05:14:08.730Z,24.77
2023-01-23T05:16:36.771Z,23.55
2023-01-23T05:19:04.895Z,22.15
2023-01-23T05:21:32.874Z,23.17
2023-01-23T05:24:00.830Z,19.05
2023-01-23T05:26:28.888Z,17.65
2023-01-23T05:28:58.287Z,18.83
2023-01-23T05:31:26.317Z,22.63
2023-01-23T05:33:54.304Z,18.25
2023-01-23T05:36:22.337Z,18.75
2023-01-23T05:38:50.252Z,18.30
2023-01-23T05:41:18.249Z,19.08
2023-01-23T05:43:46.187Z,19.23
2023-01-23T05:46:15.629Z,16.90
2023-01-23T05:48:43.682Z,18.55
2023-01-23T05:51:11.874Z,20.20
2023-01-23T05:53:39.974Z,18.95
2023-01-23T05:56:09.048Z,17.73
2023-01-23T05:58:37.049Z,18.25
2023-01-23T06:01:05.650Z,18.80
2023-01-23T06:03:35.166Z,19.05
2023-01-23T06:06:03.309Z,17.23
2023-01-23T06:08:31.182Z,18.67
2023-01-23T06:10:59.603Z,18.73
2023-01-23T06:13:27.989Z,18.58
2023-01-23T06:15:56.810Z,19.40
2023-01-23T06:18:24.988Z,18.45
2023-01-23T06:21:00.502Z,19.48
2023-01-23T06:23:29.139Z,18.25
2023-01-23T06:26:01.056Z,20.58
2023-01-23T06:28:29.495Z,18.58
2023-01-23T06:31:01.946Z,18.55
2023-01-23T06:33:29.921Z,22.63
2023-01-23T06:36:03.956Z,22.27
2023-01-23T06:38:32.180Z,17.90
2023-01-23T06:41:00.250Z,24.92
2023-01-23T06:43:28.972Z,32.03
2023-01-23T06:45:57.199Z,22.63
2023-01-23T06:48:25.124Z,23.52
2023-01-23T06:50:53.138Z,26.02
2023-01-23T06:53:22.386Z,20.67
2023-01-23T06:55:50.299Z,23.30
2023-01-23T06:58:18.266Z,21.02
2023-01-23T07:00:46.416Z,21.48
2023-01-23T07:03:15.987Z,24.35
2023-01-23T07:05:44.071Z,23.65
2023-01-23T07:08:12.047Z,25.80
2023-01-23T07:10:41.413Z,22.60
2023-01-23T07:13:10.569Z,24.52
2023-01-23T07:15:41.051Z,23.00
2023-01-23T07:18:10.434Z,23.50
2023-01-23T07:20:38.417Z,26.73
2023-01-23T07:23:06.410Z,23.60
2023-01-23T07:25:34.475Z,27.75
2023-01-23T07:28:04.302Z,24.08
2023-01-23T07:30:32.835Z,23.63
2023-01-23T07:33:01.079Z,23.42
2023-01-23T07:35:29.197Z,22.88
2023-01-23T07:37:57.531Z,24.77
2023-01-23T07:40:25.778Z,27.63
2023-01-23T07:42:53.652Z,25.75
2023-01-23T07:45:22.930Z,23.15
2023-01-23T07:47:50.840Z,24.80
2023-01-23T07:50:19.511Z,23.73
2023-01-23T07:52:47.683Z,30.88
2023-01-23T07:55:15.621Z,28.63
2023-01-23T07:57:43.707Z,27.77
2023-01-23T08:00:12.595Z,28.33
2023-01-23T08:02:41.829Z,32.03
2023-01-23T08:05:10.243Z,30.05
2023-01-23T08:07:38.205Z,29.27
2023-01-23T08:10:06.927Z,29.20
2023-01-23T08:12:34.967Z,26.52
2023-01-23T08:15:03.028Z,27.40
2023-01-23T08:17:30.974Z,29.13
2023-01-23T08:20:00.250Z,27.50
2023-01-23T08:22:28.257Z,28.40
2023-01-23T08:24:56.243Z,29.02
2023-01-23T08:27:24.261Z,27.77
2023-01-23T08:29:52.227Z,28.88
2023-01-23T08:32:20.276Z,33.63
2023-01-23T08:34:48.927Z,31.73
2023-01-23T08:37:18.210Z,29.63
2023-01-23T08:39:46.167Z,27.85
2023-01-23T08:42:14.208Z,27.17
2023-01-23T08:44:42.508Z,34.22
2023-01-23T08:47:10.515Z,29.23
2023-01-23T08:49:38.455Z,31.48
2023-01-23T08:52:06.560Z,33.60
2023-01-23T08:54:35.898Z,31.60
2023-01-23T08:57:04.079Z,35.33
2023-01-23T08:59:32.050Z,31.17
2023-01-23T09:02:00.249Z,32.45
2023-01-23T09:04:28.227Z,30.20
2023-01-23T09:06:56.122Z,30.98
2023-01-23T09:09:24.299Z,33.13
2023-01-23T09:11:54.778Z,27.10
2023-01-23T09:14:22.786Z,32.67
2023-01-23T09:16:50.776Z,31.92
2023-01-23T09:19:18.680Z,30.38
2023-01-23T09:21:46.606Z,30.75
2023-01-23T09:24:14.464Z,30.38
2023-01-23T09:26:43.532Z,30.70
2023-01-23T09:29:12.907Z,29.33
2023-01-23T09:31:40.801Z,35.20
2023-01-23T09:34:08.940Z,31.02
2023-01-23T09:36:43.247Z,32.50
2023-01-23T09:39:11.613Z,27.85
2023-01-23T09:41:40.636Z,30.48
2023-01-23T09:44:16.502Z,30.70
2023-01-23T09:46:48.725Z,27.73
2023-01-23T09:49:24.953Z,25.73
2023-01-23T09:51:59.144Z,27.73
2023-01-23T09:54:35.464Z,24.65
2023-01-23T09:57:11.775Z,26.15
2023-01-23T09:59:58.776Z,26.25
2023-01-23T10:02:28.913Z,25.92
2023-01-23T10:04:59.193Z,25.90
2023-01-23T10:07:49.378Z,25.23
2023-01-23T10:10:45.312Z,21.70
2023-01-23T10:13:17.567Z,23.73
2023-01-23T10:16:14.450Z,25.55
2023-01-23T10:18:49.243Z,24.73
2023-01-23T10:21:25.153Z,24.65
2023-01-23T10:24:02.736Z,25.13
2023-01-23T10:26:32.908Z,26.15
2023-01-23T10:29:11.321Z,27.02
2023-01-23T10:31:44.704Z,25.00
2023-01-23T10:34:22.882Z,27.00
2023-01-23T10:37:03.177Z,24.65
2023-01-23T10:39:39.482Z,22.27
2023-01-23T10:42:12.094Z,24.15
2023-01-23T10:44:40.343Z,24.33
2023-01-23T10:47:20.780Z,24.45
2023-01-23T10:49:48.725Z,24.77
2023-01-23T10:53:00.895Z,27.05
2023-01-23T10:55:31.697Z,24.17
2023-01-23T10:58:03.159Z,23.20
2023-01-23T11:00:36.856Z,22.90
2023-01-23T11:03:30.674Z,24.90
2023-01-23T11:06:03.199Z,23.45
2023-01-23T11:08:33.993Z,25.23
2023-01-23T11:11:22.638Z,25.48
2023-01-23T11:13:52.753Z,23.92
2023-01-23T11:16:23.193Z,25.15
2023-01-23T11:19:03.868Z,25.63
2023-01-23T11:21:36.034Z,24.45
2023-01-23T11:24:20.474Z,24.98
2023-01-23T11:27:00.763Z,25.73
2023-01-23T11:29:30.957Z,24.27
2023-01-23T11:32:02.829Z,26.27
2023-01-23T11:34:37.523Z,25.88
2023-01-23T11:37:10.724Z,25.08
2023-01-23T11:39:46.093Z,24.02
2023-01-23T11:42:15.920Z,25.23
2023-01-23T11:44:46.385Z,24.13
2023-01-23T11:47:40.689Z,26.50
2023-01-23T11:50:29.485Z,24.00
2023-01-23T11:53:06.231Z,25.15
2023-01-23T11:56:16.565Z,22.65
2023-01-23T11:59:12.782Z,24.58
2023-01-23T12:02:02.493Z,23.92
2023-01-23T12:05:02.773Z,25.33
2023-01-23T12:07:37.090Z,25.05
2023-01-23T12:10:19.128Z,28.80
2023-01-23T12:13:02.167Z,26.25
2023-01-23T12:15:39.139Z,28.42
2023-01-23T12:18:17.044Z,26.27
2023-01-23T12:20:54.061Z,26.48
2023-01-23T12:23:41.777Z,26.27
2023-01-23T12:26:14.749Z,24.77
2023-01-23T12:29:05.118Z,27.52
2023-01-23T12:31:56.393Z,25.95
2023-01-23T12:34:48.921Z,25.73
2023-01-23T12:37:33.238Z,25.23
2023-01-23T12:40:12.783Z,24.88
2023-01-23T12:42:51.696Z,22.05
2023-01-23T12:45:24.043Z,26.92
2023-01-23T12:48:00.860Z,24.95
2023-01-23T12:50:38.945Z,24.35
2023-01-23T12:53:11.278Z,27.92
2023-01-23T12:55:47.084Z,25.80
2023-01-23T12:58:18.594Z,23.00
2023-01-23T13:01:00.241Z,24.43
2023-01-23T13:03:46.475Z,22.17
2023-01-23T13:06:30.363Z,22.55
2023-01-23T13:09:16.652Z,24.77
2023-01-23T13:12:03.002Z,22.17
2023-01-23T13:15:03.450Z,19.63
2023-01-23T13:17:39.590Z,21.42
2023-01-23T13:20:53.200Z,22.27
2023-01-23T13:23:27.839Z,22.27
2023-01-23T13:26:31.844Z,23.42
2023-01-23T13:29:06.013Z,21.80
2023-01-23T13:31:41.396Z,22.20
2023-01-23T13:34:38.277Z,21.30
2023-01-23T13:37:46.645Z,23.30
2023-01-23T13:40:16.629Z,21.15
2023-01-23T13:42:45.092Z,22.33
2023-01-23T13:45:27.490Z,21.77
2023-01-23T14:22:38.322Z,25.40
2023-01-23T14:25:15.978Z,24.52
2023-01-23T14:27:53.809Z,26.50
2023-01-23T14:30:26.490Z,25.77
2023-01-23T14:32:54.776Z,23.60
2023-01-23T14:35:27.746Z,25.05
2023-01-23T14:37:58.822Z,25.75
2023-01-23T14:40:33.173Z,22.20
2023-01-23T14:43:08.918Z,23.35
2023-01-23T14:45:38.420Z,17.05
2023-01-23T14:48:08.747Z,22.60
2023-01-23T14:50:38.391Z,23.70
2023-01-23T14:53:12.808Z,23.67
2023-01-23T14:55:42.842Z,27.63
2023-01-23T14:58:16.572Z,22.60
2023-01-23T15:00:46.568Z,22.27
2023-01-23T15:03:34.681Z,21.58
2023-01-23T15:06:08.482Z,20.70
2023-01-23T15:08:37.061Z,22.92
2023-01-23T15:11:06.591Z,24.23
2023-01-23T15:13:41.462Z,22.48
2023-01-23T15:16:16.369Z,23.63
2023-01-23T15:18:55.300Z,22.25
2023-01-23T15:21:31.677Z,21.73
2023-01-23T15:24:16.115Z,22.75
2023-01-23T15:26:45.432Z,24.30
2023-01-23T15:29:20.086Z,23.42
2023-01-23T15:31:50.896Z,24.33
2023-01-23T15:34:25.399Z,24.58
2023-01-23T15:36:58.582Z,24.45
2023-01-23T15:39:29.250Z,25.73
2023-01-23T15:42:00.375Z,23.75
2023-01-23T15:44:29.899Z,23.58
2023-01-23T15:47:00.982Z,22.30
2023-01-23T15:49:29.312Z,22.40
2023-01-23T15:52:02.541Z,21.33
2023-01-23T15:54:34.604Z,22.00
2023-01-23T15:57:08.776Z,22.17
2023-01-23T15:59:38.238Z,19.75
2023-01-23T16:02:08.208Z,20.83
2023-01-23T16:04:39.068Z,23.85
2023-01-23T16:07:09.249Z,23.20
2023-01-23T16:09:39.299Z,23.13
2023-01-23T16:12:15.383Z,23.60
2023-01-23T16:14:43.382Z,23.27
2023-01-23T16:17:16.833Z,23.52
2023-01-23T16:19:45.447Z,24.27
2023-01-23T16:22:18.986Z,24.67
2023-01-23T16:24:47.223Z,22.00
2023-01-23T16:27:20.001Z,23.90
2023-01-23T16:29:49.463Z,24.80
2023-01-23T16:32:17.648Z,23.02
2023-01-23T16:34:45.732Z,23.88
2023-01-23T16:37:17.244Z,21.92
2023-01-23T16:39:46.522Z,20.93
2023-01-23T16:42:20.921Z,22.40
2023-01-23T16:44:49.310Z,20.20
2023-01-23T16:47:17.449Z,22.42
2023-01-23T16:49:54.229Z,21.65
2023-01-23T16:52:26.175Z,21.88
2023-01-23T16:54:55.542Z,19.85
2023-01-23T16:57:24.581Z,18.27
2023-01-23T16:59:56.193Z,20.75
2023-01-23T17:02:30.293Z,20.88
2023-01-23T17:04:58.363Z,20.70
2023-01-23T17:07:27.808Z,21.70
2023-01-23T17:09:55.814Z,21.23
2023-01-23T17:12:27.717Z,21.27
2023-01-23T17:14:56.986Z,22.05
2023-01-23T17:17:31.027Z,20.73
2023-01-23T17:20:01.003Z,20.60
2023-01-23T17:22:34.865Z,19.60
2023-01-23T17:25:03.083Z,19.48
2023-01-23T17:27:34.349Z,19.23
2023-01-23T17:30:14.477Z,20.35
2023-01-23T17:32:42.615Z,19.95
2023-01-23T17:35:20.150Z,21.40
2023-01-23T17:37:50.584Z,20.63
2023-01-23T17:40:19.225Z,18.95
2023-01-23T17:42:47.198Z,19.65
2023-01-23T17:45:18.644Z,18.80
2023-01-23T17:47:49.643Z,20.80
2023-01-23T17:50:19.703Z,23.58
2023-01-23T17:52:49.705Z,21.35
2023-01-23T17:55:19.526Z,20.35
2023-01-23T17:57:47.501Z,21.67
2023-01-23T18:00:18.527Z,18.35
2023-01-23T18:02:48.624Z,19.83
2023-01-23T18:05:16.618Z,18.27
2023-01-23T18:07:53.384Z,22.70
2023-01-23T18:14:16.403Z,19.73
2023-01-23T18:16:48.085Z,19.05
2023-01-23T18:19:18.791Z,20.40
2023-01-23T18:21:49.294Z,17.95
2023-01-23T18:24:24.574Z,15.00
2023-01-23T18:26:59.311Z,19.90
2023-01-23T18:29:40.318Z,17.65
2023-01-23T18:32:24.063Z,19.67
2023-01-23T18:34:59.199Z,19.77
2023-01-23T18:37:34.188Z,18.98
2023-01-23T18:40:11.395Z,20.85
2023-01-23T18:42:51.722Z,18.73
2023-01-23T18:45:26.944Z,18.85
2023-01-23T18:47:57.211Z,18.70
2023-01-23T18:50:27.032Z,18.73
2023-01-23T18:53:11.764Z,20.95
2023-01-23T18:55:44.337Z,18.88
2023-01-23T18:58:38.915Z,21.52
2023-01-23T19:01:23.588Z,19.52
2023-01-23T19:03:52.182Z,19.88
2023-01-23T19:06:33.280Z,19.95
2023-01-23T19:09:01.761Z,19.75
2023-01-23T19:11:37.802Z,17.90
2023-01-23T19:14:28.216Z,19.38
2023-01-23T19:17:02.281Z,18.08
2023-01-23T19:19:37.281Z,18.05
2023-01-23T19:22:13.569Z,17.88
2023-01-23T19:24:42.159Z,18.40
2023-01-23T19:27:18.262Z,19.42
2023-01-23T19:29:51.078Z,19.55
2023-01-23T19:32:22.537Z,18.63
2023-01-23T19:34:50.616Z,18.10
2023-01-23T19:37:21.675Z,19.50
2023-01-23T19:39:49.696Z,17.85
2023-01-23T19:42:18.228Z,19.35
2023-01-23T19:44:46.360Z,18.80
2023-01-23T19:47:15.752Z,15.55
2023-01-23T19:49:43.796Z,17.17
2023-01-23T19:52:14.597Z,17.17
2023-01-23T19:54:42.643Z,17.70
2023-01-23T19:57:10.653Z,18.00
2023-01-23T19:59:38.656Z,21.13
2023-01-23T20:02:20.960Z,17.92
2023-01-23T20:04:52.012Z,17.50
2023-01-23T20:07:19.966Z,18.13
2023-01-23T20:09:48.059Z,19.33
2023-01-23T20:12:16.147Z,18.60
2023-01-23T20:14:44.166Z,17.73
2023-01-23T20:17:12.102Z,20.35
2023-01-23T20:19:41.749Z,19.08
2023-01-23T20:22:09.822Z,18.08
2023-01-23T20:24:38.077Z,15.98
2023-01-23T20:27:06.319Z,18.95
2023-01-23T20:29:34.307Z,19.17
2023-01-23T20:32:02.840Z,17.88
2023-01-23T20:34:31.241Z,19.25
2023-01-23T20:37:01.265Z,18.75
2023-01-23T20:39:29.208Z,19.52
2023-01-23T20:41:57.288Z,19.98
2023-01-23T20:44:25.432Z,19.73
2023-01-23T20:46:53.378Z,19.15
2023-01-23T20:49:23.311Z,17.40
2023-01-23T20:51:51.312Z,18.38
2023-01-23T20:54:19.854Z,17.45
2023-01-23T20:56:49.019Z,19.35
2023-01-23T20:59:18.602Z,18.05
2023-01-23T21:02:04.755Z,17.55
2023-01-23T21:04:35.064Z,17.83
2023-01-23T21:07:04.147Z,20.15
2023-01-23T21:09:36.612Z,18.77
2023-01-23T21:14:32.683Z,18.55
2023-01-23T21:17:00.708Z,21.83
2023-01-23T21:19:28.847Z,21.17
2023-01-23T21:21:56.841Z,20.40
2023-01-23T21:24:25.286Z,21.98
2023-01-23T21:26:54.895Z,20.73
2023-01-23T21:29:22.818Z,18.92
2023-01-23T21:31:51.529Z,19.63
2023-01-23T21:34:19.536Z,19.63
2023-01-23T21:36:47.498Z,19.80
2023-01-23T21:39:16.013Z,19.23
2023-01-23T21:41:45.068Z,21.42
2023-01-23T21:44:15.209Z,19.98
2023-01-23T21:46:43.560Z,19.63
2023-01-23T21:49:11.698Z,17.90
2023-01-23T21:51:39.782Z,18.83
2023-01-23T21:54:07.698Z,20.08
2023-01-23T21:56:35.924Z,19.33
2023-01-23T21:59:03.875Z,19.38
2023-01-23T22:01:32.708Z,19.27
2023-01-23T22:04:01.624Z,19.83
2023-01-23T22:06:29.988Z,19.52
2023-01-23T22:08:58.754Z,20.65
2023-01-23T22:11:26.692Z,18.90
2023-01-23T22:13:54.841Z,20.67
2023-01-23T22:16:35.958Z,20.35
2023-01-23T22:19:14.550Z,17.92
2023-01-23T22:21:43.644Z,18.70
2023-01-23T22:24:11.682Z,17.77
2023-01-23T22:26:39.817Z,19.08
2023-01-23T22:29:10.389Z,18.83
2023-01-23T22:31:43.118Z,19.13
2023-01-23T22:34:19.445Z,18.40
2023-01-23T22:36:47.521Z,19.30
2023-01-23T22:39:16.854Z,20.10
2023-01-23T22:41:45.674Z,18.83
2023-01-23T22:44:14.641Z,18.48
2023-01-23T22:46:42.564Z,19.33
2023-01-23T22:49:11.990Z,18.75
2023-01-23T22:51:40.006Z,19.92
2023-01-23T22:54:10.492Z,19.60
2023-01-23T22:56:38.935Z,18.70
2023-01-23T22:59:09.756Z,18.30
2023-01-23T23:01:37.757Z,19.50
2023-01-23T23:04:06.131Z,18.23
2023-01-23T23:06:37.517Z,20.38
2023-01-23T23:09:06.276Z,18.27
2023-01-23T23:11:35.798Z,18.95
2023-01-23T23:14:03.931Z,20.08
2023-01-23T23:16:32.990Z,19.42
2023-01-23T23:19:02.577Z,19.60
2023-01-23T23:21:33.815Z,18.90
2023-01-23T23:24:05.931Z,18.38
2023-01-23T23:26:34.659Z,16.58
2023-01-23T23:29:03.272Z,18.40
2023-01-23T23:31:31.423Z,18.30
2023-01-23T23:33:59.910Z,19.88
2023-01-23T23:36:28.114Z,18.23
2023-01-23T23:38:56.140Z,20.77
2023-01-23T23:41:25.594Z,20.60
2023-01-23T23:43:56.789Z,18.38
2023-01-23T23:46:25.179Z,20.98
2023-01-23T23:48:53.529Z,19.42
2023-01-23T23:51:26.377Z,18.25
2023-01-23T23:53:55.594Z,19.40
2023-01-23T23:56:26.659Z,21.50
2023-01-23T23:58:55.348Z,21.83
